createdAt,value
2017-07-30T18:32:01.475Z,23.1
2017-07-30T18:33:08.939Z,25.2
2017-07-30T18:34:11.542Z,25.9
2017-07-30T18:35:15.215Z,26.1
2017-07-30T18:36:21.226Z,26.1
2017-07-30T18:37:26.206Z,26.1
2017-07-30T18:38:33.129Z,26.1
2017-07-30T18:39:37.759Z,26.0
2017-07-30T18:40:44.612Z,26.0
2017-07-30T18:41:49.416Z,26.0
2017-07-30T18:42:53.999Z,26.0
2017-07-30T18:43:57.566Z,26.0
2017-07-30T18:45:02.194Z,25.9
2017-07-30T18:46:07.461Z,25.9
2017-07-30T18:47:11.633Z,25.9
2017-07-30T18:48:18.702Z,25.9
2017-07-30T18:49:27.201Z,25.9
2017-07-30T18:50:33.970Z,25.9
2017-07-30T18:51:40.229Z,25.8
2017-07-30T18:52:44.672Z,25.9
2017-07-30T18:53:49.035Z,25.8
2017-07-30T18:54:54.977Z,25.8
2017-07-30T18:55:59.111Z,25.8
2017-07-30T18:57:03.609Z,25.8
2017-07-30T18:58:09.962Z,25.8
2017-07-30T18:59:14.744Z,25.8
2017-07-30T19:00:20.488Z,25.7
2017-07-30T19:01:26.508Z,25.7
2017-07-30T19:02:28.963Z,25.7
2017-07-30T19:03:32.603Z,25.7
2017-07-30T19:04:37.591Z,25.7
2017-07-30T19:05:41.192Z,25.7
2017-07-30T19:06:48.263Z,25.7
2017-07-30T19:07:52.893Z,25.6
2017-07-30T19:08:57.393Z,25.7
2017-07-30T19:10:05.783Z,25.7
2017-07-30T19:11:11.201Z,25.6
2017-07-30T19:12:17.904Z,25.6
2017-07-30T19:13:23.675Z,25.6
2017-07-30T19:14:30.586Z,25.6
2017-07-30T19:15:36.831Z,25.6
2017-07-30T19:16:41.657Z,25.6
2017-07-30T19:17:46.020Z,25.5
2017-07-30T19:18:52.097Z,25.5
2017-07-30T19:19:56.627Z,25.5
2017-07-30T19:21:03.390Z,25.5
2017-07-30T19:22:07.891Z,25.5
2017-07-30T19:23:12.047Z,25.5
2017-07-30T19:24:19.027Z,25.5
2017-07-30T19:25:23.312Z,25.5
2017-07-30T19:26:28.306Z,25.4
2017-07-30T19:27:35.416Z,25.5
2017-07-30T19:28:42.040Z,25.4
2017-07-30T19:29:48.537Z,25.4
2017-07-30T19:30:55.660Z,25.4
2017-07-30T19:32:01.766Z,25.4
2017-07-30T19:33:08.074Z,25.3
2017-07-30T19:34:16.229Z,25.3
2017-07-30T19:35:23.621Z,25.3
2017-07-30T19:36:29.721Z,25.3
2017-07-30T19:37:36.917Z,25.3
2017-07-30T19:38:46.788Z,25.3
2017-07-30T19:39:54.063Z,25.3
2017-07-30T19:41:00.157Z,25.3
2017-07-30T19:42:04.293Z,25.3
2017-07-30T19:43:11.030Z,25.2
2017-07-30T19:44:16.341Z,25.2
2017-07-30T19:45:21.389Z,25.2
2017-07-30T19:46:27.916Z,25.2
2017-07-30T19:47:33.710Z,25.2
2017-07-30T19:48:38.817Z,25.2
2017-07-30T19:49:44.077Z,25.2
2017-07-30T19:50:50.281Z,25.2
2017-07-30T19:51:55.215Z,25.1
2017-07-30T19:53:04.254Z,25.1
2017-07-30T19:54:10.611Z,25.1
2017-07-30T19:55:14.859Z,25.1
2017-07-30T19:56:22.595Z,25.1
2017-07-30T19:57:29.235Z,25.1
2017-07-30T19:58:36.656Z,25.1
2017-07-30T19:59:43.581Z,25.1
2017-07-30T20:00:49.605Z,25.1
2017-07-30T20:01:54.565Z,25.1
2017-07-30T20:02:59.091Z,25.0
2017-07-30T20:04:04.858Z,25.0
2017-07-30T20:05:10.269Z,25.0
2017-07-30T20:06:13.550Z,25.0
2017-07-30T20:07:18.248Z,25.0
2017-07-30T20:08:25.367Z,25.0
2017-07-30T20:09:32.088Z,25.0
2017-07-30T20:10:38.270Z,25.0
2017-07-30T20:11:43.931Z,25.0
2017-07-30T20:12:49.273Z,25.0
2017-07-30T20:13:57.122Z,25.0
2017-07-30T20:15:03.086Z,25.0
2017-07-30T20:16:09.862Z,25.0
2017-07-30T20:17:14.631Z,25.0
2017-07-30T20:18:20.673Z,25.0
2017-07-30T20:19:25.533Z,24.9
2017-07-30T20:20:31.841Z,24.9
2017-07-30T20:21:37.895Z,24.9
2017-07-30T20:22:44.251Z,24.9
2017-07-30T20:23:49.307Z,24.9
2017-07-30T20:24:55.801Z,24.9
2017-07-30T20:26:00.971Z,24.9
2017-07-30T20:27:07.917Z,24.9
2017-07-30T20:28:13.521Z,24.9
2017-07-30T20:29:19.596Z,24.8
2017-07-30T20:30:24.110Z,24.8
2017-07-30T20:31:31.328Z,24.8
2017-07-30T20:32:39.717Z,24.8
2017-07-30T20:33:46.644Z,24.8
2017-07-30T20:34:53.347Z,24.8
2017-07-30T20:35:59.065Z,24.8
2017-07-30T20:37:05.862Z,24.8
2017-07-30T20:38:12.160Z,24.8
2017-07-30T20:39:20.206Z,24.8
2017-07-30T20:40:26.156Z,24.8
2017-07-30T20:41:34.388Z,24.8
2017-07-30T20:42:39.670Z,24.7
2017-07-30T20:43:47.182Z,24.7
2017-07-30T20:44:52.785Z,24.7
2017-07-30T20:45:59.691Z,24.7
2017-07-30T20:47:05.359Z,24.7
2017-07-30T20:48:11.428Z,24.7
2017-07-30T20:49:17.670Z,24.7
2017-07-30T20:50:26.172Z,24.7
2017-07-30T20:51:31.173Z,24.7
2017-07-30T20:52:37.783Z,24.7
2017-07-30T20:53:43.343Z,24.7
2017-07-30T20:54:49.029Z,24.6
2017-07-30T20:55:55.953Z,24.6
2017-07-30T20:57:04.917Z,24.6
2017-07-30T20:58:09.665Z,24.6
2017-07-30T20:59:15.691Z,24.6
2017-07-30T21:00:20.840Z,24.6
2017-07-30T21:01:26.032Z,24.6
2017-07-30T21:02:32.195Z,24.6
2017-07-30T21:03:38.698Z,24.6
2017-07-30T21:04:44.695Z,24.6
2017-07-30T21:05:52.672Z,24.6
2017-07-30T21:06:58.424Z,24.6
2017-07-30T21:08:08.360Z,24.6
2017-07-30T21:09:14.007Z,24.6
2017-07-30T21:10:21.154Z,24.5
2017-07-30T21:11:28.736Z,24.5
2017-07-30T21:12:36.709Z,24.5
2017-07-30T21:13:42.392Z,24.5
2017-07-30T21:14:47.901Z,24.5
2017-07-30T21:15:52.661Z,24.5
2017-07-30T21:17:00.719Z,24.5
2017-07-30T21:18:03.244Z,24.5
2017-07-30T21:19:07.301Z,24.5
2017-07-30T21:20:13.723Z,24.5
2017-07-30T21:21:19.125Z,24.5
2017-07-30T21:22:23.512Z,24.5
2017-07-30T21:23:29.734Z,24.5
2017-07-30T21:24:34.176Z,24.5
2017-07-30T21:25:39.731Z,24.5
2017-07-30T21:26:43.863Z,24.5
2017-07-30T21:27:48.236Z,24.5
2017-07-30T21:28:52.368Z,24.5
2017-07-30T21:29:56.978Z,24.5
2017-07-30T21:31:03.583Z,24.4
2017-07-30T21:32:08.796Z,24.4
2017-07-30T21:33:16.748Z,24.5
2017-07-30T21:34:23.248Z,24.4
2017-07-30T21:35:30.910Z,24.4
2017-07-30T21:36:35.894Z,24.4
2017-07-30T21:37:43.253Z,24.4
2017-07-30T21:38:50.034Z,24.4
2017-07-30T21:39:57.414Z,24.4
2017-07-30T21:41:06.266Z,24.4
2017-07-30T21:42:16.268Z,24.4
2017-07-30T21:43:25.695Z,24.4
2017-07-30T21:44:31.248Z,24.4
2017-07-30T21:45:40.108Z,24.4
2017-07-30T21:46:46.850Z,24.4
2017-07-30T21:47:57.397Z,24.4
2017-07-30T21:49:05.167Z,24.4
2017-07-30T21:50:12.144Z,24.4
2017-07-30T21:51:16.204Z,24.4
2017-07-30T21:52:21.381Z,24.4
2017-07-30T21:54:42.010Z,24.4
2017-07-30T21:55:46.639Z,24.3
2017-07-30T21:56:53.646Z,24.3
2017-07-30T21:58:02.309Z,24.4
2017-07-30T21:59:10.054Z,24.4
2017-07-30T22:00:15.663Z,24.3
2017-07-30T22:01:22.924Z,24.3
2017-07-30T22:02:31.792Z,24.3
2017-07-30T22:03:37.231Z,24.3
2017-07-30T22:04:44.613Z,24.3
2017-07-30T22:05:49.842Z,24.3
2017-07-30T22:07:02.301Z,24.3
2017-07-30T22:08:09.217Z,24.3
2017-07-30T22:09:16.482Z,24.3
2017-07-30T22:10:21.826Z,24.3
2017-07-30T22:11:28.310Z,24.3
2017-07-30T22:12:33.055Z,24.3
2017-07-30T22:13:38.999Z,24.3
2017-07-30T22:14:44.370Z,24.3
2017-07-30T22:15:50.990Z,24.3
2017-07-30T22:16:55.331Z,24.3
2017-07-30T22:17:59.593Z,24.3
2017-07-30T22:19:05.470Z,24.3
2017-07-30T22:20:12.396Z,24.3
2017-07-30T22:21:18.030Z,24.3
2017-07-30T22:22:23.403Z,24.3
2017-07-30T22:23:29.329Z,24.3
2017-07-30T22:24:36.830Z,24.2
2017-07-30T22:25:41.668Z,24.2
2017-07-30T22:26:46.538Z,24.2
2017-07-30T22:27:52.498Z,24.2
2017-07-30T22:28:59.974Z,24.2
2017-07-30T22:30:06.111Z,24.2
2017-07-30T22:31:10.169Z,24.2
2017-07-30T22:32:15.370Z,24.2
2017-07-30T22:33:21.845Z,24.2
2017-07-30T22:34:28.935Z,24.2
2017-07-30T22:35:36.214Z,24.2
2017-07-30T22:36:42.350Z,24.2
2017-07-30T22:37:47.516Z,24.2
2017-07-30T22:38:54.008Z,24.2
2017-07-30T22:39:58.526Z,24.2
2017-07-30T22:41:05.390Z,24.2
2017-07-30T22:42:11.862Z,24.2
2017-07-30T22:43:18.996Z,24.2
2017-07-30T22:44:24.993Z,24.2
2017-07-30T22:45:32.889Z,24.2
2017-07-30T22:46:39.724Z,24.2
2017-07-30T22:47:45.205Z,24.2
2017-07-30T22:48:50.095Z,24.2
2017-07-30T22:49:58.874Z,24.2
2017-07-30T22:51:04.007Z,24.2
2017-07-30T22:52:10.097Z,24.2
2017-07-30T22:53:18.031Z,24.1
2017-07-30T22:54:25.567Z,24.2
2017-07-30T22:55:33.198Z,24.2
2017-07-30T22:56:40.345Z,24.2
2017-07-30T22:57:44.448Z,24.2
2017-07-30T22:58:53.388Z,24.2
2017-07-30T22:59:57.845Z,24.1
2017-07-30T23:01:02.777Z,24.1
2017-07-30T23:02:07.297Z,24.1
2017-07-30T23:03:15.081Z,24.1
2017-07-30T23:04:22.123Z,24.1
2017-07-30T23:05:27.896Z,24.1
2017-07-30T23:06:33.544Z,24.1
2017-07-30T23:07:40.263Z,24.1
2017-07-30T23:08:45.922Z,24.1
2017-07-30T23:09:50.505Z,24.1
2017-07-30T23:10:56.410Z,24.1
2017-07-30T23:12:01.059Z,24.1
2017-07-30T23:13:06.235Z,24.1
2017-07-30T23:14:11.700Z,24.1
2017-07-30T23:15:17.128Z,24.1
2017-07-30T23:16:22.558Z,24.1
2017-07-30T23:17:27.513Z,24.1
2017-07-30T23:18:34.085Z,24.1
2017-07-30T23:19:40.195Z,24.1
2017-07-30T23:20:44.040Z,24.1
2017-07-30T23:21:50.599Z,24.1
2017-07-30T23:22:54.569Z,24.1
2017-07-30T23:23:59.119Z,24.1
2017-07-30T23:25:04.899Z,24.1
2017-07-30T23:26:12.462Z,24.1
2017-07-30T23:27:17.252Z,24.1
2017-07-30T23:28:21.263Z,24.1
2017-07-30T23:29:27.158Z,24.1
2017-07-30T23:30:32.214Z,24.1
2017-07-30T23:31:37.441Z,24.1
2017-07-30T23:32:42.507Z,24.1
2017-07-30T23:33:47.009Z,24.1
2017-07-30T23:34:53.139Z,24.1
2017-07-30T23:35:59.746Z,24.1
2017-07-30T23:37:05.215Z,24.1
2017-07-30T23:38:09.618Z,24.1
2017-07-30T23:39:14.655Z,24.1
2017-07-30T23:40:20.514Z,24.1
2017-07-30T23:41:27.596Z,24.0
2017-07-30T23:42:34.140Z,24.0
2017-07-30T23:43:42.464Z,24.0
2017-07-30T23:44:48.026Z,24.1
2017-07-30T23:45:56.275Z,24.1
2017-07-30T23:47:01.137Z,24.0
2017-07-30T23:48:09.576Z,24.0
2017-07-30T23:49:14.606Z,24.0
2017-07-30T23:50:19.732Z,24.0
2017-07-30T23:51:25.398Z,24.0
2017-07-30T23:52:30.087Z,24.0
2017-07-30T23:53:35.621Z,24.0
2017-07-30T23:54:39.830Z,24.0
2017-07-30T23:55:45.490Z,24.0
2017-07-30T23:56:49.425Z,24.0
2017-07-30T23:57:53.455Z,24.0
2017-07-30T23:58:58.143Z,24.0
